createdAt,value
2018-12-06T00:00:49.150Z,8.76
2018-12-06T00:03:15.984Z,8.85
2018-12-06T00:05:41.962Z,8.92
2018-12-06T00:08:07.939Z,9.23
2018-12-06T00:10:33.941Z,9.40
2018-12-06T00:12:59.902Z,8.46
2018-12-06T00:15:25.883Z,8.97
2018-12-06T00:17:51.855Z,8.98
2018-12-06T00:20:17.820Z,8.18
2018-12-06T00:22:43.796Z,8.21
2018-12-06T00:25:09.937Z,8.15
2018-12-06T00:27:35.965Z,7.88
2018-12-06T00:30:02.001Z,7.92
2018-12-06T00:32:27.988Z,7.80
2018-12-06T00:34:53.972Z,7.85
2018-12-06T00:37:19.937Z,7.93
2018-12-06T00:39:45.918Z,7.68
2018-12-06T00:42:11.875Z,8.17
2018-12-06T00:44:37.862Z,8.13
2018-12-06T00:47:03.989Z,8.56
2018-12-06T01:04:42.264Z,7.29
2018-12-06T01:07:08.257Z,7.27
2018-12-06T01:09:34.329Z,7.49
2018-12-06T01:12:00.415Z,7.77
2018-12-06T01:14:26.387Z,8.32
2018-12-06T01:16:52.360Z,8.60
2018-12-06T01:19:18.323Z,7.83
2018-12-06T01:21:44.312Z,7.81
2018-12-06T01:24:10.287Z,7.84
2018-12-06T01:26:36.246Z,8.42
2018-12-06T01:29:02.221Z,7.90
2018-12-06T01:34:00.540Z,7.58
2018-12-06T01:36:26.538Z,8.46
2018-12-06T01:38:53.181Z,7.81
2018-12-06T01:41:19.284Z,8.15
2018-12-06T01:43:45.259Z,8.22
2018-12-06T01:46:11.250Z,8.25
2018-12-06T01:48:37.221Z,8.25
2018-12-06T01:51:03.189Z,8.38
2018-12-06T01:53:29.138Z,9.16
2018-12-06T01:55:55.128Z,9.02
2018-12-06T01:58:21.120Z,9.40
2018-12-06T02:08:22.854Z,10.14
2018-12-06T02:10:48.797Z,9.82
2018-12-06T02:13:14.744Z,10.39
2018-12-06T02:15:40.700Z,10.46
2018-12-06T02:18:06.650Z,10.01
2018-12-06T02:20:32.614Z,9.68
2018-12-06T02:22:58.561Z,9.66
2018-12-06T02:25:24.539Z,10.08
2018-12-06T02:27:50.495Z,9.75
2018-12-06T02:30:16.467Z,10.13
2018-12-06T02:32:42.419Z,10.20
2018-12-06T02:35:08.387Z,10.20
2018-12-06T02:37:34.367Z,10.08
2018-12-06T02:40:00.349Z,10.42
2018-12-06T02:42:26.328Z,10.59
2018-12-06T02:44:52.285Z,10.21
2018-12-06T02:47:18.252Z,9.87
2018-12-06T02:49:44.214Z,9.87
2018-12-06T02:52:10.288Z,9.80
2018-12-06T02:54:36.251Z,9.99
2018-12-06T02:57:02.240Z,9.93
2018-12-06T02:59:28.219Z,9.79
2018-12-06T03:01:54.211Z,9.91
2018-12-06T03:04:20.170Z,9.77
2018-12-06T03:06:46.141Z,10.26
2018-12-06T03:09:12.121Z,10.20
2018-12-06T03:11:38.087Z,10.38
2018-12-06T03:14:04.062Z,10.36
2018-12-06T03:16:30.037Z,10.70
2018-12-06T03:18:56.005Z,10.59
2018-12-06T03:21:21.977Z,10.68
2018-12-06T03:23:47.959Z,10.55
2018-12-06T03:26:13.934Z,10.67
2018-12-06T03:28:39.904Z,10.78
2018-12-06T03:31:05.878Z,10.57
2018-12-06T03:33:31.889Z,10.61
2018-12-06T03:35:57.967Z,10.59
2018-12-06T03:38:23.933Z,10.52
2018-12-06T03:40:49.912Z,10.67
2018-12-06T03:43:15.926Z,10.65
2018-12-06T03:45:41.976Z,10.53
2018-12-06T03:48:07.929Z,10.61
2018-12-06T03:50:33.893Z,10.82
2018-12-06T03:52:59.892Z,11.08
2018-12-06T03:55:25.854Z,10.27
2018-12-06T03:57:51.847Z,10.12
2018-12-06T04:00:17.897Z,9.91
2018-12-06T04:02:43.879Z,9.92
2018-12-06T04:05:09.864Z,9.56
2018-12-06T04:07:35.849Z,8.85
2018-12-06T04:10:01.816Z,8.35
2018-12-06T04:12:27.810Z,8.55
2018-12-06T04:14:53.771Z,9.56
2018-12-06T04:17:19.730Z,9.77
2018-12-06T04:19:45.681Z,8.84
2018-12-06T04:22:11.653Z,8.14
2018-12-06T04:24:37.597Z,8.12
2018-12-06T04:27:03.586Z,7.94
2018-12-06T04:29:29.555Z,7.45
2018-12-06T04:31:55.548Z,7.77
2018-12-06T04:34:21.524Z,7.86
2018-12-06T04:36:47.511Z,7.85
2018-12-06T04:39:13.495Z,7.85
2018-12-06T04:41:39.473Z,7.71
2018-12-06T04:44:05.428Z,7.43
2018-12-06T04:46:31.493Z,8.00
2018-12-06T04:48:57.545Z,7.94
2018-12-06T04:51:23.537Z,8.04
2018-12-06T04:53:49.496Z,8.71
2018-12-06T04:56:15.460Z,8.29
2018-12-06T04:58:41.474Z,7.96
2018-12-06T05:01:07.433Z,8.23
2018-12-06T05:03:33.414Z,7.82
2018-12-06T05:05:59.407Z,8.06
2018-12-06T05:08:25.425Z,7.67
2018-12-06T05:10:51.498Z,8.64
2018-12-06T05:13:17.603Z,7.80
2018-12-06T05:15:43.583Z,7.57
2018-12-06T05:18:09.566Z,7.89
2018-12-06T05:20:35.552Z,7.79
2018-12-06T05:23:01.548Z,7.76
2018-12-06T05:25:27.591Z,7.04
2018-12-06T05:27:53.562Z,7.12
2018-12-06T05:30:25.109Z,7.23
2018-12-06T05:32:51.072Z,7.69
2018-12-06T05:35:17.076Z,8.51
2018-12-06T05:37:43.171Z,7.48
2018-12-06T05:40:09.115Z,7.55
2018-12-06T05:42:35.108Z,7.79
2018-12-06T05:45:01.089Z,8.11
2018-12-06T05:47:27.214Z,8.00
2018-12-06T05:49:53.186Z,8.28
2018-12-06T05:52:19.222Z,7.88
2018-12-06T05:54:45.208Z,7.94
2018-12-06T05:57:11.180Z,7.86
2018-12-06T05:59:37.169Z,8.11
2018-12-06T06:02:03.155Z,8.35
2018-12-06T06:04:29.104Z,7.98
2018-12-06T06:06:55.058Z,8.35
2018-12-06T06:09:21.128Z,8.31
2018-12-06T06:11:47.239Z,8.31
2018-12-06T06:14:13.270Z,8.00
2018-12-06T06:16:39.286Z,7.90
2018-12-06T06:19:05.335Z,8.26
2018-12-06T06:21:31.401Z,8.12
2018-12-06T06:23:57.370Z,8.39
2018-12-06T06:26:23.340Z,8.58
2018-12-06T06:28:49.389Z,8.45
2018-12-06T06:31:15.361Z,8.34
2018-12-06T06:33:41.344Z,8.63
2018-12-06T06:36:07.310Z,8.21
2018-12-06T06:38:34.434Z,8.61
2018-12-06T06:41:00.411Z,8.13
2018-12-06T06:43:26.392Z,8.34
2018-12-06T06:45:52.346Z,8.83
2018-12-06T06:48:18.343Z,8.43
2018-12-06T06:50:44.321Z,8.92
2018-12-06T06:53:10.319Z,9.39
2018-12-06T06:55:36.264Z,8.53
2018-12-06T06:58:02.262Z,9.05
2018-12-06T07:00:28.216Z,8.65
2018-12-06T07:02:54.199Z,8.02
2018-12-06T07:05:20.176Z,8.94
2018-12-06T07:07:46.146Z,8.92
2018-12-06T07:10:12.114Z,8.98
2018-12-06T07:12:38.204Z,9.03
2018-12-06T07:15:04.167Z,8.95
2018-12-06T07:17:30.125Z,9.42
2018-12-06T07:19:56.101Z,9.78
2018-12-06T07:22:22.059Z,10.00
2018-12-06T07:24:48.019Z,9.89
2018-12-06T07:27:13.992Z,9.42
2018-12-06T07:29:39.971Z,9.54
2018-12-06T07:32:05.941Z,10.11
2018-12-06T07:34:31.936Z,9.20
2018-12-06T07:36:58.557Z,9.17
2018-12-06T07:39:24.550Z,8.20
2018-12-06T07:41:50.511Z,8.35
2018-12-06T07:44:16.499Z,9.31
2018-12-06T07:46:42.561Z,9.66
2018-12-06T07:49:08.532Z,9.17
2018-12-06T07:51:34.504Z,8.78
2018-12-06T07:54:01.457Z,9.74
2018-12-06T07:56:27.419Z,9.49
2018-12-06T07:58:53.393Z,9.74
2018-12-06T08:01:19.509Z,9.40
2018-12-06T08:03:45.481Z,9.20
2018-12-06T08:06:11.440Z,9.98
2018-12-06T08:08:37.410Z,8.96
2018-12-06T08:11:03.366Z,8.85
2018-12-06T08:13:29.347Z,9.13
2018-12-06T08:15:55.328Z,9.46
2018-12-06T08:18:21.327Z,9.46
2018-12-06T08:20:47.291Z,9.55
2018-12-06T08:23:13.276Z,10.16
2018-12-06T08:25:39.253Z,9.84
2018-12-06T08:28:05.214Z,9.97
2018-12-06T08:30:31.195Z,9.39
2018-12-06T08:32:57.160Z,9.12
2018-12-06T08:35:27.235Z,8.98
2018-12-06T08:37:53.190Z,9.09
2018-12-06T08:40:21.220Z,9.18
2018-12-06T08:42:47.201Z,9.11
2018-12-06T08:45:13.173Z,9.81
2018-12-06T08:47:40.220Z,9.25
2018-12-06T08:50:06.172Z,8.69
2018-12-06T08:52:32.125Z,8.42
2018-12-06T08:54:58.128Z,8.91
2018-12-06T08:57:24.092Z,8.11
2018-12-06T08:59:50.073Z,8.56
2018-12-06T09:02:16.055Z,8.78
2018-12-06T09:04:42.037Z,9.39
2018-12-06T09:07:08.047Z,9.09
2018-12-06T09:09:34.028Z,9.15
2018-12-06T09:12:00.545Z,8.88
2018-12-06T09:14:26.563Z,8.78
2018-12-06T09:16:52.567Z,8.91
2018-12-06T09:19:19.371Z,8.64
2018-12-06T09:21:45.355Z,8.69
2018-12-06T09:24:11.341Z,9.10
2018-12-06T09:26:37.302Z,8.72
2018-12-06T09:29:03.306Z,9.00
2018-12-06T09:31:29.298Z,7.94
2018-12-06T09:33:55.284Z,8.14
2018-12-06T09:36:21.288Z,8.21
2018-12-06T09:38:47.280Z,8.87
2018-12-06T09:41:13.303Z,8.42
2018-12-06T09:43:39.273Z,8.59
2018-12-06T09:46:05.235Z,8.82
2018-12-06T09:48:31.207Z,8.64
2018-12-06T09:50:57.300Z,8.91
2018-12-06T09:53:23.368Z,8.73
2018-12-06T09:55:49.355Z,9.30
2018-12-06T09:58:16.916Z,8.56
2018-12-06T10:00:47.347Z,8.44
2018-12-06T10:03:14.478Z,8.45
2018-12-06T10:05:40.475Z,8.64
2018-12-06T10:08:06.467Z,9.02
2018-12-06T10:10:32.435Z,8.44
2018-12-06T10:12:58.424Z,9.49
2018-12-06T10:15:24.395Z,8.79
2018-12-06T10:17:50.392Z,8.98
2018-12-06T10:20:16.389Z,9.30
2018-12-06T10:22:42.388Z,9.19
2018-12-06T10:25:08.355Z,8.86
2018-12-06T10:27:34.325Z,7.72
2018-12-06T10:30:00.310Z,7.83
2018-12-06T10:32:27.433Z,8.22
2018-12-06T10:34:54.649Z,8.17
2018-12-06T10:37:20.614Z,8.88
2018-12-06T10:39:46.590Z,8.76
2018-12-06T10:42:12.554Z,8.25
2018-12-06T10:44:38.577Z,8.22
2018-12-06T10:49:37.056Z,7.77
2018-12-06T10:52:03.071Z,8.47
2018-12-06T10:54:29.917Z,9.03
2018-12-06T10:56:55.901Z,9.20
2018-12-06T10:59:22.813Z,8.26
2018-12-06T11:01:48.802Z,8.13
2018-12-06T11:04:14.777Z,8.30
2018-12-06T11:06:40.771Z,8.58
2018-12-06T11:09:06.829Z,8.89
2018-12-06T11:11:37.524Z,9.09
2018-12-06T11:14:03.516Z,9.40
2018-12-06T11:16:29.488Z,9.15
2018-12-06T11:18:55.461Z,8.61
2018-12-06T11:21:21.426Z,8.19
2018-12-06T11:23:47.750Z,8.06
2018-12-06T11:26:13.917Z,8.43
2018-12-06T11:28:39.910Z,8.13
2018-12-06T11:31:05.893Z,8.42
2018-12-06T11:33:32.907Z,8.48
2018-12-06T11:35:59.784Z,8.47
2018-12-06T11:38:25.754Z,8.65
2018-12-06T11:40:51.728Z,8.57
2018-12-06T11:43:17.705Z,7.99
2018-12-06T11:45:43.701Z,8.22
2018-12-06T11:48:10.061Z,8.48
2018-12-06T11:50:36.046Z,8.90
2018-12-06T11:53:02.001Z,8.70
2018-12-06T11:55:28.062Z,8.65
2018-12-06T11:57:54.247Z,8.74
2018-12-06T12:00:20.249Z,8.78
2018-12-06T12:05:19.689Z,9.26
2018-12-06T12:07:46.387Z,8.41
2018-12-06T12:10:16.975Z,8.46
2018-12-06T12:15:17.338Z,8.64
2018-12-06T12:17:47.745Z,8.45
2018-12-06T12:20:16.148Z,8.47
2018-12-06T12:22:47.804Z,8.86
2018-12-06T12:25:15.978Z,8.80
2018-12-06T12:30:20.475Z,8.50
2018-12-06T12:32:51.019Z,8.04
2018-12-06T12:35:19.398Z,8.14
2018-12-06T12:37:47.102Z,8.30
2018-12-06T12:40:16.049Z,8.06
2018-12-06T12:42:42.589Z,8.29
2018-12-06T12:45:10.884Z,9.28
2018-12-06T12:50:22.706Z,8.43
2018-12-06T12:52:50.573Z,9.12
2018-12-06T12:55:17.055Z,8.83
2018-12-06T13:00:24.823Z,9.02
2018-12-06T13:02:52.428Z,8.71
2018-12-06T13:05:20.043Z,8.41
2018-12-06T13:07:47.601Z,8.42
2018-12-06T13:10:14.693Z,8.18
2018-12-06T13:12:44.639Z,7.76
2018-12-06T13:15:13.844Z,7.65
2018-12-06T13:17:42.724Z,8.11
2018-12-06T13:20:09.288Z,8.45
2018-12-06T13:22:35.265Z,8.21
2018-12-06T13:25:01.302Z,8.84
2018-12-06T13:27:27.305Z,8.44
2018-12-06T13:29:53.289Z,8.39
2018-12-06T13:32:19.257Z,8.46
2018-12-06T13:34:45.262Z,9.05
2018-12-06T13:37:11.329Z,8.55
2018-12-06T13:39:37.300Z,8.90
2018-12-06T13:42:03.244Z,8.90
2018-12-06T13:44:29.199Z,9.46
2018-12-06T13:46:55.149Z,9.35
2018-12-06T13:49:21.110Z,9.85
2018-12-06T13:51:47.075Z,9.82
2018-12-06T13:54:13.067Z,10.31
2018-12-06T13:56:39.042Z,10.74
2018-12-06T13:59:05.012Z,10.48
2018-12-06T14:01:30.987Z,10.56
2018-12-06T14:03:56.968Z,10.11
2018-12-06T14:06:22.941Z,9.84
2018-12-06T14:08:48.897Z,9.77
2018-12-06T14:11:14.887Z,9.28
2018-12-06T14:13:40.839Z,9.33
2018-12-06T14:16:10.403Z,9.37
2018-12-06T14:18:34.781Z,9.60
2018-12-06T14:21:00.772Z,8.88
2018-12-06T14:23:26.758Z,9.07
2018-12-06T14:25:52.760Z,8.83
2018-12-06T14:28:18.728Z,8.83
2018-12-06T14:30:44.727Z,8.97
2018-12-06T14:33:10.749Z,8.64
2018-12-06T14:35:36.804Z,9.41
2018-12-06T14:38:02.772Z,9.80
2018-12-06T14:40:28.732Z,8.83
2018-12-06T14:42:54.708Z,8.85
2018-12-06T14:45:20.674Z,9.07
2018-12-06T14:47:46.670Z,9.37
2018-12-06T14:50:12.655Z,9.16
2018-12-06T14:52:38.661Z,9.48
2018-12-06T14:55:04.654Z,9.59
2018-12-06T14:57:30.680Z,8.63
2018-12-06T14:59:56.643Z,9.07
2018-12-06T15:02:22.661Z,8.41
2018-12-06T15:04:48.645Z,8.61
2018-12-06T15:07:14.633Z,8.33
2018-12-06T15:09:40.590Z,8.02
2018-12-06T15:12:06.561Z,7.75
2018-12-06T15:14:32.525Z,8.37
2018-12-06T15:16:58.508Z,8.85
2018-12-06T15:19:24.504Z,8.52
2018-12-06T15:21:50.491Z,8.53
2018-12-06T15:24:20.613Z,8.35
2018-12-06T15:26:46.586Z,8.12
2018-12-06T15:29:12.588Z,8.24
2018-12-06T15:31:38.574Z,8.13
2018-12-06T15:34:04.552Z,8.52
2018-12-06T15:36:30.524Z,8.46
2018-12-06T15:38:56.522Z,9.34
2018-12-06T15:41:22.502Z,9.29
2018-12-06T15:43:48.482Z,8.77
2018-12-06T15:46:14.453Z,9.69
2018-12-06T15:48:40.422Z,9.85
2018-12-06T15:51:06.406Z,8.99
2018-12-06T15:53:32.375Z,9.40
2018-12-06T15:55:58.373Z,9.61
2018-12-06T15:58:24.363Z,9.79
2018-12-06T16:00:50.345Z,9.73
2018-12-06T16:03:16.332Z,9.81
2018-12-06T16:05:43.475Z,9.64
2018-12-06T16:08:09.620Z,9.92
2018-12-06T16:10:35.633Z,10.12
2018-12-06T16:13:01.620Z,10.35
2018-12-06T16:15:27.561Z,9.98
2018-12-06T16:17:53.541Z,10.19
2018-12-06T16:20:19.506Z,10.42
2018-12-06T16:22:45.488Z,10.63
2018-12-06T16:25:11.583Z,10.24
2018-12-06T16:27:37.647Z,10.04
2018-12-06T16:30:03.611Z,9.97
2018-12-06T16:32:29.574Z,9.63
2018-12-06T16:37:27.977Z,10.06
2018-12-06T16:39:57.492Z,9.77
2018-12-06T16:42:23.469Z,10.08
2018-12-06T16:44:49.462Z,9.60
2018-12-06T16:47:15.468Z,9.13
2018-12-06T16:49:41.455Z,9.91
2018-12-06T16:52:08.520Z,10.05
2018-12-06T16:54:34.511Z,10.25
2018-12-06T16:57:04.707Z,10.06
2018-12-06T16:59:30.673Z,9.77
2018-12-06T17:01:56.644Z,9.65
2018-12-06T17:04:22.617Z,9.79
2018-12-06T17:06:48.575Z,10.39
2018-12-06T17:14:21.076Z,10.21
2018-12-06T17:16:47.063Z,10.67
2018-12-06T17:19:13.049Z,10.36
2018-12-06T17:21:39.028Z,10.07
2018-12-06T17:24:05.003Z,10.05
2018-12-06T17:26:30.973Z,10.40
2018-12-06T17:28:56.954Z,10.54
2018-12-06T17:31:22.915Z,10.13
2018-12-06T17:33:49.812Z,10.67
2018-12-06T17:38:52.260Z,10.62
2018-12-06T17:41:18.216Z,10.44
2018-12-06T17:43:44.203Z,10.25
2018-12-06T17:46:10.191Z,10.40
2018-12-06T17:48:36.152Z,10.42
2018-12-06T17:51:02.108Z,10.14
2018-12-06T17:53:28.059Z,10.34
2018-12-06T17:55:54.058Z,9.88
2018-12-06T17:58:20.037Z,10.02
2018-12-06T18:00:45.996Z,10.41
2018-12-06T18:03:12.794Z,10.66
2018-12-06T18:05:38.756Z,10.60
2018-12-06T18:08:04.709Z,10.70
2018-12-06T18:10:30.746Z,10.75
2018-12-06T18:12:56.743Z,10.84
2018-12-06T18:15:22.720Z,10.75
2018-12-06T18:17:48.672Z,10.87
2018-12-06T18:20:14.660Z,10.47
2018-12-06T18:22:40.627Z,10.65
2018-12-06T18:25:06.606Z,10.68
2018-12-06T18:27:32.552Z,10.86
2018-12-06T18:29:58.549Z,10.91
2018-12-06T18:35:00.515Z,10.67
2018-12-06T18:37:26.533Z,10.95
2018-12-06T18:39:52.587Z,11.04
2018-12-06T18:42:18.541Z,10.94
2018-12-06T18:44:44.539Z,10.99
2018-12-06T18:47:10.532Z,10.85
2018-12-06T18:49:36.528Z,10.87
2018-12-06T18:52:02.504Z,10.58
2018-12-06T18:54:28.480Z,10.98
2018-12-06T18:56:54.446Z,10.57
2018-12-06T18:59:20.442Z,10.82
2018-12-06T19:01:46.558Z,10.76
2018-12-06T19:04:12.717Z,10.87
2018-12-06T19:06:38.727Z,10.96
2018-12-06T19:14:07.187Z,11.08
2018-12-06T19:16:33.157Z,11.30
2018-12-06T19:18:59.107Z,11.39
2018-12-06T19:21:25.148Z,11.28
2018-12-06T19:24:21.108Z,11.33
2018-12-06T19:26:47.075Z,11.48
2018-12-06T19:29:13.084Z,11.06
2018-12-06T19:31:39.051Z,11.10
2018-12-06T19:34:05.007Z,11.22
2018-12-06T19:39:02.152Z,11.37
2018-12-06T19:41:28.110Z,10.99
2018-12-06T19:43:54.073Z,11.06
2018-12-06T19:46:20.055Z,10.77
2018-12-06T19:48:46.020Z,10.85
2018-12-06T19:51:12.011Z,11.21
2018-12-06T19:53:38.050Z,11.42
2018-12-06T19:56:04.016Z,11.03
2018-12-06T19:58:30.089Z,11.60
2018-12-06T20:00:56.040Z,11.40
2018-12-06T20:03:21.989Z,10.98
2018-12-06T20:05:47.973Z,10.75
2018-12-06T20:08:13.983Z,11.54
2018-12-06T20:10:39.957Z,11.27
2018-12-06T20:13:05.969Z,10.88
2018-12-06T20:15:31.966Z,11.46
2018-12-06T20:17:57.905Z,11.64
2018-12-06T20:20:24.088Z,11.33
2018-12-06T20:22:50.176Z,11.49
2018-12-06T20:25:16.134Z,11.34
2018-12-06T20:27:42.152Z,11.54
2018-12-06T20:35:11.043Z,10.90
2018-12-06T20:37:37.016Z,11.40
2018-12-06T20:40:02.999Z,11.67
2018-12-06T20:42:30.092Z,11.20
2018-12-06T20:44:56.040Z,11.37
2018-12-06T20:47:22.102Z,11.13
2018-12-06T20:49:48.076Z,11.74
2018-12-06T20:52:16.085Z,11.71
2018-12-06T20:54:42.107Z,11.50
2018-12-06T20:57:08.802Z,11.62
2018-12-06T20:59:34.746Z,11.48
2018-12-06T21:02:00.708Z,11.36
2018-12-06T21:04:26.666Z,11.23
2018-12-06T21:06:52.604Z,11.57
2018-12-06T21:09:18.786Z,11.34
2018-12-06T21:11:45.013Z,11.54
2018-12-06T21:14:11.018Z,11.70
2018-12-06T21:16:36.968Z,11.83
2018-12-06T21:19:02.968Z,11.72
2018-12-06T21:21:28.929Z,11.37
2018-12-06T21:23:54.876Z,11.52
2018-12-06T21:26:20.852Z,11.34
2018-12-06T21:28:46.799Z,11.57
2018-12-06T21:31:12.756Z,11.58
2018-12-06T21:33:38.796Z,11.81
2018-12-06T21:36:04.776Z,11.55
2018-12-06T21:38:30.745Z,11.51
2018-12-06T21:40:56.716Z,11.62
2018-12-06T21:43:22.658Z,11.82
2018-12-06T21:45:48.612Z,11.82
2018-12-06T21:48:14.556Z,11.68
2018-12-06T21:50:40.572Z,11.46
2018-12-06T21:53:06.535Z,11.36
2018-12-06T21:55:32.482Z,11.24
2018-12-06T21:57:58.441Z,11.49
2018-12-06T22:00:24.393Z,11.85
2018-12-06T22:02:50.351Z,11.79
2018-12-06T22:05:16.303Z,11.46
2018-12-06T22:07:42.246Z,11.72
2018-12-06T22:10:08.187Z,11.75
2018-12-06T22:12:34.128Z,11.65
2018-12-06T22:15:00.060Z,11.90
2018-12-06T22:17:26.020Z,11.67
2018-12-06T22:19:51.956Z,11.43
2018-12-06T22:22:17.922Z,11.58
2018-12-06T22:24:44.010Z,11.42
2018-12-06T22:27:09.964Z,11.54
2018-12-06T22:29:35.983Z,11.32
2018-12-06T22:32:02.022Z,10.89
2018-12-06T22:34:27.985Z,11.61
2018-12-06T22:36:53.953Z,11.82
2018-12-06T22:39:19.914Z,11.38
2018-12-06T22:41:45.872Z,11.33
2018-12-06T22:44:11.816Z,11.14
2018-12-06T22:46:37.793Z,11.75
2018-12-06T22:49:04.560Z,11.48
2018-12-06T22:51:30.530Z,11.67
2018-12-06T22:53:56.567Z,11.56
2018-12-06T22:56:22.500Z,11.46
2018-12-06T22:58:48.478Z,11.79
2018-12-06T23:01:14.497Z,11.48
2018-12-06T23:03:40.464Z,11.78
2018-12-06T23:06:06.424Z,11.80
2018-12-06T23:08:32.540Z,12.21
2018-12-06T23:10:58.476Z,12.36
2018-12-06T23:13:24.447Z,12.23
2018-12-06T23:15:50.417Z,12.16
2018-12-06T23:18:16.427Z,12.31
2018-12-06T23:20:42.471Z,12.68
2018-12-06T23:23:08.425Z,13.04
2018-12-06T23:25:34.399Z,13.21
2018-12-06T23:28:00.360Z,13.75
2018-12-06T23:30:26.312Z,13.85
2018-12-06T23:32:52.295Z,13.99
2018-12-06T23:35:19.474Z,14.05
2018-12-06T23:37:45.485Z,14.16
2018-12-06T23:40:11.424Z,14.45
2018-12-06T23:42:37.396Z,14.30
2018-12-06T23:45:03.364Z,14.81
2018-12-06T23:47:29.335Z,14.25
2018-12-06T23:49:55.264Z,14.59
2018-12-06T23:52:21.242Z,14.86
2018-12-06T23:54:47.177Z,14.69
2018-12-06T23:57:13.112Z,14.37
2018-12-06T23:59:39.081Z,14.16
